createdAt,value
2018-01-31T01:53:44.760Z,14.13
2018-01-31T01:56:12.437Z,13.53
2018-01-31T01:58:39.995Z,13.10
2018-01-31T02:01:07.634Z,13.93
2018-01-31T02:03:35.288Z,14.27
2018-01-31T02:06:02.951Z,13.77
2018-01-31T02:08:30.552Z,12.97
2018-01-31T02:10:58.217Z,14.07
2018-01-31T02:13:25.888Z,13.47
2018-01-31T02:15:53.503Z,14.93
2018-01-31T02:18:21.083Z,14.33
2018-01-31T02:20:48.800Z,14.77
2018-01-31T02:23:16.543Z,13.60
2018-01-31T02:25:44.177Z,13.27
2018-01-31T02:28:11.832Z,15.07
2018-01-31T02:30:39.490Z,14.73
2018-01-31T02:33:07.157Z,14.87
2018-01-31T02:35:34.805Z,14.10
2018-01-31T02:38:02.433Z,14.73
2018-01-31T02:40:30.042Z,14.33
2018-01-31T02:42:57.600Z,15.13
2018-01-31T02:45:25.245Z,15.70
2018-01-31T02:47:52.861Z,14.03
2018-01-31T02:50:20.506Z,14.93
2018-01-31T02:52:48.217Z,14.00
2018-01-31T02:55:15.849Z,14.43
2018-01-31T02:57:43.510Z,15.23
2018-01-31T03:00:11.122Z,15.47
2018-01-31T03:02:38.845Z,15.33
2018-01-31T03:05:06.539Z,15.57
2018-01-31T03:07:34.169Z,14.23
2018-01-31T03:10:01.818Z,15.40
2018-01-31T03:12:29.418Z,15.20
2018-01-31T03:14:57.035Z,15.20
2018-01-31T03:17:24.596Z,15.77
2018-01-31T03:19:52.162Z,15.70
2018-01-31T03:22:19.800Z,16.63
2018-01-31T03:24:47.487Z,15.67
2018-01-31T03:27:15.170Z,14.63
2018-01-31T03:29:42.748Z,15.17
2018-01-31T03:32:10.378Z,15.20
2018-01-31T03:34:37.988Z,15.10
2018-01-31T03:37:05.655Z,13.83
2018-01-31T03:39:33.313Z,14.87
2018-01-31T03:42:00.935Z,15.07
2018-01-31T03:44:28.531Z,15.03
2018-01-31T03:46:56.217Z,15.37
2018-01-31T03:49:23.854Z,14.97
2018-01-31T03:51:52.153Z,14.00
2018-01-31T03:54:19.765Z,15.20
2018-01-31T03:56:47.824Z,15.10
2018-01-31T03:59:15.464Z,15.17
2018-01-31T04:01:43.116Z,16.23
2018-01-31T04:04:10.723Z,14.57
2018-01-31T04:06:39.533Z,15.47
2018-01-31T04:09:07.178Z,16.30
2018-01-31T04:11:34.841Z,14.60
2018-01-31T04:14:02.483Z,15.07
2018-01-31T04:16:30.207Z,15.17
2018-01-31T04:18:57.874Z,14.93
2018-01-31T04:21:25.533Z,14.57
2018-01-31T04:23:53.212Z,13.57
2018-01-31T04:26:21.219Z,12.87
2018-01-31T04:28:48.796Z,13.40
2018-01-31T04:31:16.499Z,15.87
2018-01-31T04:33:44.112Z,14.17
2018-01-31T04:36:11.783Z,15.17
2018-01-31T04:38:39.354Z,14.33
2018-01-31T04:41:06.938Z,14.17
2018-01-31T04:43:34.610Z,13.27
2018-01-31T04:46:02.235Z,14.97
2018-01-31T04:48:29.872Z,14.60
2018-01-31T04:50:57.415Z,15.50
2018-01-31T04:53:25.485Z,15.10
2018-01-31T04:55:53.118Z,14.17
2018-01-31T04:58:20.729Z,14.83
2018-01-31T05:00:48.415Z,15.40
2018-01-31T05:03:16.070Z,14.13
2018-01-31T05:05:43.836Z,14.90
2018-01-31T05:08:11.423Z,15.20
2018-01-31T05:10:39.470Z,14.63
2018-01-31T05:13:07.139Z,14.77
2018-01-31T05:15:35.064Z,14.80
2018-01-31T05:18:02.744Z,14.47
2018-01-31T05:20:30.293Z,15.00
2018-01-31T05:22:57.975Z,15.43
2018-01-31T05:25:25.610Z,14.53
2018-01-31T05:27:53.309Z,14.73
2018-01-31T05:30:21.021Z,14.90
2018-01-31T05:32:48.681Z,14.70
2018-01-31T05:35:16.426Z,15.03
2018-01-31T05:37:44.445Z,16.03
2018-01-31T05:40:12.044Z,15.07
2018-01-31T05:42:40.351Z,16.50
2018-01-31T05:45:08.086Z,14.73
2018-01-31T05:47:36.135Z,14.67
2018-01-31T05:50:03.731Z,14.37
2018-01-31T05:52:31.403Z,14.53
2018-01-31T05:54:59.063Z,13.10
2018-01-31T05:57:26.716Z,13.87
2018-01-31T05:59:54.382Z,14.97
2018-01-31T06:02:22.056Z,15.33
2018-01-31T06:04:49.696Z,14.73
2018-01-31T06:07:17.404Z,14.43
2018-01-31T06:09:45.129Z,14.23
2018-01-31T06:12:12.835Z,13.53
2018-01-31T06:14:40.460Z,14.20
2018-01-31T06:17:08.042Z,13.77
2018-01-31T06:19:35.763Z,14.53
2018-01-31T06:22:04.440Z,15.43
2018-01-31T06:24:32.036Z,14.07
2018-01-31T06:26:59.616Z,14.27
2018-01-31T06:29:27.289Z,14.00
2018-01-31T06:31:54.844Z,13.73
2018-01-31T06:34:22.393Z,13.70
2018-01-31T06:36:50.028Z,12.97
2018-01-31T06:39:17.610Z,13.23
2018-01-31T06:41:45.138Z,13.37
2018-01-31T06:44:12.704Z,13.27
2018-01-31T06:46:40.279Z,13.47
2018-01-31T06:49:07.906Z,13.17
2018-01-31T06:51:35.543Z,14.10
2018-01-31T06:54:03.551Z,14.37
2018-01-31T06:56:31.734Z,13.70
2018-01-31T06:58:59.348Z,14.50
2018-01-31T07:01:27.023Z,14.70
2018-01-31T07:03:54.617Z,16.97
2018-01-31T07:06:22.216Z,19.57
2018-01-31T07:08:49.795Z,20.60
2018-01-31T07:11:17.431Z,17.60
2018-01-31T07:13:45.494Z,17.97
2018-01-31T07:16:13.172Z,19.57
2018-01-31T07:18:41.173Z,17.43
2018-01-31T07:21:08.707Z,16.80
2018-01-31T07:23:36.706Z,13.57
2018-01-31T07:26:04.308Z,13.93
2018-01-31T07:28:31.927Z,13.53
2018-01-31T07:30:59.491Z,12.33
2018-01-31T07:33:27.051Z,12.80
2018-01-31T07:35:54.689Z,12.83
2018-01-31T07:38:22.237Z,12.63
2018-01-31T07:40:49.917Z,12.17
2018-01-31T07:43:17.526Z,11.67
2018-01-31T07:45:45.136Z,12.30
2018-01-31T07:48:12.706Z,12.50
2018-01-31T07:50:40.283Z,12.63
2018-01-31T07:53:07.833Z,11.37
2018-01-31T07:55:35.501Z,11.43
2018-01-31T07:58:03.131Z,11.17
2018-01-31T08:00:30.756Z,10.63
2018-01-31T08:02:58.825Z,11.50
2018-01-31T08:05:26.821Z,11.10
2018-01-31T08:07:54.435Z,10.33
2018-01-31T08:10:22.094Z,10.50
2018-01-31T08:12:49.751Z,10.10
2018-01-31T08:15:17.357Z,10.40
2018-01-31T08:17:44.918Z,10.60
2018-01-31T08:20:12.535Z,10.90
2018-01-31T08:22:40.401Z,10.87
2018-01-31T08:25:08.003Z,10.40
2018-01-31T08:27:35.606Z,11.00
2018-01-31T08:30:03.186Z,10.87
2018-01-31T08:32:30.743Z,10.83
2018-01-31T08:34:59.160Z,11.20
2018-01-31T08:37:26.727Z,10.60
2018-01-31T08:39:54.292Z,10.50
2018-01-31T08:42:21.913Z,10.30
2018-01-31T08:44:49.907Z,11.33
2018-01-31T08:47:17.512Z,10.60
2018-01-31T08:49:45.104Z,10.43
2018-01-31T08:52:12.623Z,10.80
2018-01-31T08:54:40.202Z,10.63
2018-01-31T08:57:07.823Z,10.33
2018-01-31T08:59:35.473Z,11.47
2018-01-31T09:02:03.068Z,10.40
2018-01-31T09:04:30.661Z,13.97
2018-01-31T09:06:58.254Z,10.80
2018-01-31T09:09:26.059Z,11.20
2018-01-31T09:11:54.106Z,11.53
2018-01-31T09:14:21.663Z,10.50
2018-01-31T09:16:49.335Z,10.63
2018-01-31T09:19:16.918Z,11.00
2018-01-31T09:21:44.555Z,11.03
2018-01-31T09:24:12.193Z,10.90
2018-01-31T09:26:39.795Z,11.43
2018-01-31T09:29:07.377Z,11.50
2018-01-31T09:31:34.972Z,10.80
2018-01-31T09:34:02.548Z,11.33
2018-01-31T09:36:30.142Z,10.50
2018-01-31T09:38:58.159Z,11.30
2018-01-31T09:41:25.713Z,10.50
2018-01-31T09:43:53.331Z,10.70
2018-01-31T09:46:20.895Z,11.23
2018-01-31T09:48:48.556Z,10.63
2018-01-31T09:51:16.150Z,11.23
2018-01-31T09:53:43.749Z,10.07
2018-01-31T09:56:11.394Z,10.87
2018-01-31T09:58:39.015Z,11.47
2018-01-31T10:01:06.640Z,10.23
2018-01-31T10:03:34.266Z,10.33
2018-01-31T10:06:01.920Z,10.13
2018-01-31T10:08:29.562Z,10.20
2018-01-31T10:10:57.103Z,10.50
2018-01-31T10:13:24.641Z,10.17
2018-01-31T10:15:52.618Z,11.37
2018-01-31T10:18:20.685Z,10.20
2018-01-31T10:20:48.335Z,10.97
2018-01-31T10:23:15.939Z,11.17
2018-01-31T10:25:43.611Z,11.00
2018-01-31T10:28:11.216Z,10.57
2018-01-31T10:30:39.210Z,12.03
2018-01-31T10:33:06.856Z,10.53
2018-01-31T10:35:34.451Z,10.10
2018-01-31T10:38:02.004Z,11.30
2018-01-31T10:40:29.592Z,12.00
2018-01-31T10:42:57.171Z,11.03
2018-01-31T10:45:25.099Z,12.00
2018-01-31T10:47:52.752Z,10.37
2018-01-31T10:50:20.379Z,11.70
2018-01-31T10:52:47.932Z,11.23
2018-01-31T10:57:28.597Z,9.87
2018-01-31T10:57:43.163Z,11.63
2018-01-31T11:00:10.751Z,9.57
2018-01-31T11:02:38.381Z,9.87
2018-01-31T11:05:05.996Z,9.97
2018-01-31T11:07:33.616Z,10.00
2018-01-31T11:10:01.235Z,10.33
2018-01-31T11:12:28.800Z,10.87
2018-01-31T11:14:56.809Z,9.10
2018-01-31T11:17:24.397Z,9.63
2018-01-31T11:19:52.030Z,10.20
2018-01-31T11:22:19.659Z,10.77
2018-01-31T11:24:47.224Z,10.57
2018-01-31T11:27:14.876Z,9.73
2018-01-31T11:29:42.473Z,9.33
2018-01-31T11:32:10.060Z,10.67
2018-01-31T11:34:37.631Z,11.20
2018-01-31T11:37:05.276Z,10.50
2018-01-31T11:39:32.917Z,9.47
2018-01-31T11:42:00.524Z,8.70
2018-01-31T11:44:28.451Z,8.93
2018-01-31T11:46:56.048Z,9.73
2018-01-31T11:49:24.055Z,9.57
2018-01-31T11:51:51.632Z,10.03
2018-01-31T11:54:19.223Z,10.40
2018-01-31T11:56:47.302Z,9.53
2018-01-31T11:59:15.245Z,11.03
2018-01-31T12:01:43.178Z,10.27
2018-01-31T12:04:10.729Z,9.50
2018-01-31T12:06:38.318Z,9.53
2018-01-31T12:12:07.325Z,9.37
2018-01-31T12:14:46.658Z,10.67
2018-01-31T12:17:14.271Z,9.60
2018-01-31T12:20:07.031Z,9.53
2018-01-31T12:22:46.442Z,10.10
2018-01-31T12:25:25.907Z,9.93
2018-01-31T12:28:05.331Z,9.07
2018-01-31T12:30:58.406Z,9.33
2018-01-31T12:33:37.856Z,9.40
2018-01-31T12:36:17.487Z,9.30
2018-01-31T12:38:56.903Z,9.40
2018-01-31T12:41:23.972Z,9.60
2018-01-31T12:43:51.046Z,9.73
2018-01-31T12:46:30.557Z,9.37
2018-01-31T12:49:02.601Z,9.23
2018-01-31T12:51:51.808Z,10.13
2018-01-31T12:54:31.078Z,10.00
2018-01-31T12:57:10.539Z,9.67
2018-01-31T12:59:50.123Z,9.77
2018-01-31T13:02:33.385Z,10.00
2018-01-31T13:05:12.943Z,9.10
2018-01-31T13:07:52.431Z,9.23
2018-01-31T13:10:31.881Z,10.80
2018-01-31T13:13:11.170Z,9.50
2018-01-31T13:16:02.267Z,9.70
2018-01-31T13:18:41.555Z,10.00
2018-01-31T13:21:20.864Z,8.97
2018-01-31T13:24:15.212Z,8.47
2018-01-31T13:26:54.612Z,9.47
2018-01-31T13:29:24.990Z,9.57
2018-01-31T13:32:04.261Z,9.43
2018-01-31T13:34:43.571Z,9.23
2018-01-31T13:37:28.708Z,9.70
2018-01-31T13:40:08.357Z,8.97
2018-01-31T13:43:01.499Z,8.73
2018-01-31T13:45:41.367Z,10.20
2018-01-31T13:48:20.866Z,9.43
2018-01-31T13:51:00.163Z,9.83
2018-01-31T13:53:39.409Z,10.00
2018-01-31T13:56:18.924Z,9.13
2018-01-31T13:58:58.274Z,10.17
2018-01-31T14:01:37.638Z,10.57
2018-01-31T14:04:17.139Z,10.77
2018-01-31T14:06:56.597Z,9.40
2018-01-31T14:09:36.074Z,9.87
2018-01-31T14:12:15.745Z,10.20
2018-01-31T14:14:55.178Z,13.80
2018-01-31T14:17:34.723Z,10.23
2018-01-31T14:20:14.144Z,9.93
2018-01-31T14:22:53.529Z,10.47
2018-01-31T14:25:32.821Z,9.53
2018-01-31T14:28:12.411Z,10.53
2018-01-31T14:30:51.624Z,12.00
2018-01-31T14:33:31.006Z,11.10
2018-01-31T14:36:10.290Z,11.00
2018-01-31T14:38:37.366Z,10.57
2018-01-31T14:41:04.428Z,10.70
2018-01-31T14:43:31.533Z,10.87
2018-01-31T14:45:58.642Z,12.03
2018-01-31T14:48:25.692Z,10.83
2018-01-31T14:50:52.776Z,10.50
2018-01-31T14:53:19.870Z,10.77
2018-01-31T14:55:46.913Z,11.47
2018-01-31T14:58:14.403Z,11.27
2018-01-31T15:00:41.500Z,11.23
2018-01-31T15:03:08.571Z,10.50
2018-01-31T15:05:35.658Z,11.10
2018-01-31T15:08:02.806Z,11.43
2018-01-31T15:10:29.919Z,10.23
2018-01-31T15:12:57.011Z,11.10
2018-01-31T15:15:24.084Z,9.83
2018-01-31T15:17:51.146Z,10.97
2018-01-31T15:20:18.210Z,10.23
2018-01-31T15:22:45.362Z,10.40
2018-01-31T15:25:12.472Z,11.67
2018-01-31T15:27:39.565Z,11.10
2018-01-31T15:30:06.778Z,10.77
2018-01-31T15:32:33.855Z,10.13
2018-01-31T15:35:00.912Z,10.30
2018-01-31T15:37:27.977Z,10.97
2018-01-31T15:39:55.088Z,10.90
2018-01-31T15:42:22.182Z,11.80
2018-01-31T15:44:49.340Z,10.10
2018-01-31T15:47:16.904Z,11.43
2018-01-31T15:49:43.991Z,11.23
2018-01-31T15:52:11.155Z,11.67
2018-01-31T15:54:38.284Z,12.03
2018-01-31T15:57:05.433Z,12.67
2018-01-31T15:59:32.496Z,11.40
2018-01-31T16:01:59.586Z,11.50
2018-01-31T16:04:26.650Z,11.30
2018-01-31T16:06:53.787Z,12.50
2018-01-31T16:09:20.804Z,11.70
2018-01-31T16:11:47.928Z,11.90
2018-01-31T16:14:15.002Z,12.13
2018-01-31T16:16:42.533Z,11.93
2018-01-31T16:19:21.986Z,11.43
2018-01-31T16:21:49.570Z,12.40
2018-01-31T16:24:17.181Z,12.17
2018-01-31T16:26:44.750Z,11.60
2018-01-31T16:29:24.302Z,12.87
2018-01-31T16:32:04.023Z,12.27
2018-01-31T16:34:31.546Z,11.83
2018-01-31T16:36:59.092Z,11.57
2018-01-31T16:39:26.675Z,10.63
2018-01-31T16:41:54.238Z,10.93
2018-01-31T16:44:21.910Z,10.93
2018-01-31T16:46:49.918Z,10.37
2018-01-31T16:49:17.543Z,10.07
2018-01-31T16:51:45.161Z,11.87
2018-01-31T16:54:13.713Z,10.77
2018-01-31T16:56:41.281Z,11.40
2018-01-31T16:59:08.830Z,11.03
2018-01-31T17:01:36.406Z,11.13
2018-01-31T17:04:03.979Z,11.53
2018-01-31T17:06:31.506Z,11.37
2018-01-31T17:08:59.080Z,10.43
2018-01-31T17:11:26.658Z,11.00
2018-01-31T17:13:54.229Z,12.20
2018-01-31T17:16:21.846Z,11.87
2018-01-31T17:18:49.401Z,10.97
2018-01-31T17:21:16.941Z,11.57
2018-01-31T17:23:44.603Z,11.63
2018-01-31T17:26:20.902Z,10.93
2018-01-31T17:28:48.510Z,11.27
2018-01-31T17:31:16.056Z,11.13
2018-01-31T17:33:43.626Z,11.37
2018-01-31T17:36:11.215Z,10.73
2018-01-31T17:38:38.756Z,11.47
2018-01-31T17:41:06.306Z,11.97
2018-01-31T17:43:33.869Z,11.67
2018-01-31T17:46:01.413Z,11.67
2018-01-31T17:48:29.362Z,12.00
2018-01-31T17:50:56.950Z,11.83
2018-01-31T17:53:24.512Z,11.23
2018-01-31T17:55:52.018Z,10.67
2018-01-31T17:58:19.643Z,12.10
2018-01-31T18:00:47.213Z,12.40
2018-01-31T18:03:14.739Z,12.00
2018-01-31T18:05:42.392Z,11.80
2018-01-31T18:08:09.984Z,11.27
2018-01-31T18:10:37.519Z,11.60
2018-01-31T18:13:05.145Z,11.67
2018-01-31T18:15:32.768Z,12.43
2018-01-31T18:18:00.367Z,12.17
2018-01-31T18:20:28.010Z,12.90
2018-01-31T18:22:56.479Z,15.17
2018-01-31T18:25:24.068Z,14.10
2018-01-31T18:27:51.701Z,15.00
2018-01-31T18:30:19.236Z,12.47
2018-01-31T18:32:46.841Z,12.40
2018-01-31T18:35:14.414Z,13.00
2018-01-31T18:37:42.375Z,12.57
2018-01-31T18:40:09.974Z,13.47
2018-01-31T18:42:37.534Z,13.10
2018-01-31T18:45:05.162Z,12.73
2018-01-31T18:47:33.204Z,12.47
2018-01-31T18:50:00.830Z,13.07
2018-01-31T18:52:28.351Z,11.40
2018-01-31T18:54:55.855Z,11.37
2018-01-31T18:57:23.401Z,9.00
2018-01-31T18:59:50.955Z,10.33
2018-01-31T19:02:18.515Z,9.57
2018-01-31T19:04:46.156Z,9.33
2018-01-31T19:07:13.700Z,7.97
2018-01-31T19:09:41.275Z,8.23
2018-01-31T19:12:08.814Z,9.00
2018-01-31T19:14:36.413Z,10.70
2018-01-31T19:17:03.975Z,10.67
2018-01-31T19:19:31.559Z,9.30
2018-01-31T19:21:59.093Z,9.13
2018-01-31T19:24:26.699Z,10.20
2018-01-31T19:26:54.339Z,6.73
2018-01-31T19:29:21.967Z,7.13
2018-01-31T19:31:49.563Z,6.80
2018-01-31T19:34:17.142Z,7.17
2018-01-31T19:36:45.148Z,6.57
2018-01-31T19:39:12.705Z,6.17
2018-01-31T19:41:40.287Z,6.47
2018-01-31T19:44:07.826Z,6.43
2018-01-31T19:46:35.359Z,5.60
2018-01-31T19:49:02.914Z,5.03
2018-01-31T19:51:30.518Z,5.43
2018-01-31T19:53:58.115Z,5.40
2018-01-31T19:56:26.104Z,5.77
2018-01-31T19:58:53.721Z,4.93
2018-01-31T20:01:21.328Z,5.03
2018-01-31T20:03:49.094Z,5.37
2018-01-31T20:06:16.646Z,5.57
2018-01-31T20:08:44.269Z,5.13
2018-01-31T20:11:12.019Z,5.20
2018-01-31T20:13:39.594Z,5.83
2018-01-31T20:16:07.123Z,4.83
2018-01-31T20:18:34.741Z,5.40
2018-01-31T20:21:02.342Z,5.50
2018-01-31T20:23:29.971Z,5.60
2018-01-31T20:25:57.614Z,5.37
2018-01-31T20:28:25.173Z,5.30
2018-01-31T20:30:53.132Z,5.73
2018-01-31T20:33:20.724Z,5.87
2018-01-31T20:35:48.235Z,5.77
2018-01-31T20:38:15.841Z,6.07
2018-01-31T20:40:43.501Z,5.90
2018-01-31T20:43:11.090Z,5.13
2018-01-31T20:45:38.678Z,6.47
2018-01-31T20:48:06.706Z,5.87
2018-01-31T20:50:34.302Z,5.33
2018-01-31T20:53:01.831Z,5.90
2018-01-31T20:55:29.451Z,5.70
2018-01-31T20:57:57.017Z,6.20
2018-01-31T21:00:24.572Z,9.17
2018-01-31T21:02:52.219Z,11.20
2018-01-31T21:05:20.258Z,12.53
2018-01-31T21:07:47.848Z,13.03
2018-01-31T21:10:15.387Z,12.53
2018-01-31T21:12:42.978Z,13.40
2018-01-31T21:15:10.540Z,13.20
2018-01-31T21:17:38.111Z,12.53
2018-01-31T21:20:05.746Z,12.73
2018-01-31T21:22:33.345Z,14.70
2018-01-31T21:25:00.963Z,13.23
2018-01-31T21:27:28.520Z,13.23
2018-01-31T21:29:56.477Z,13.37
2018-01-31T21:32:24.488Z,15.37
2018-01-31T21:34:52.036Z,14.47
2018-01-31T21:37:19.622Z,13.77
2018-01-31T21:39:47.255Z,16.00
2018-01-31T21:42:14.760Z,17.53
2018-01-31T21:44:42.341Z,15.20
2018-01-31T21:47:09.944Z,16.13
2018-01-31T21:49:37.527Z,16.43
2018-01-31T21:52:05.043Z,14.67
2018-01-31T21:54:32.567Z,15.27
2018-01-31T21:57:00.140Z,15.67
2018-01-31T21:59:28.104Z,14.27
2018-01-31T22:01:55.711Z,15.60
2018-01-31T22:04:23.306Z,15.63
2018-01-31T22:06:50.828Z,15.10
2018-01-31T22:09:19.234Z,15.47
2018-01-31T22:11:46.821Z,14.67
2018-01-31T22:14:14.783Z,16.13
2018-01-31T22:16:42.762Z,15.00
2018-01-31T22:19:10.413Z,14.67
2018-01-31T22:21:39.446Z,13.87
2018-01-31T22:24:07.083Z,14.30
2018-01-31T22:26:34.715Z,14.27
2018-01-31T22:29:02.878Z,14.70
2018-01-31T22:31:30.436Z,14.13
2018-01-31T22:33:58.059Z,13.57
2018-01-31T22:36:26.430Z,12.23
2018-01-31T22:38:54.087Z,13.23
2018-01-31T22:41:22.906Z,12.03
2018-01-31T22:43:50.462Z,11.00
2018-01-31T22:46:18.108Z,11.30
2018-01-31T22:48:45.719Z,11.53
2018-01-31T22:51:13.302Z,10.47
2018-01-31T22:53:40.879Z,8.60
2018-01-31T22:56:08.446Z,5.43
2018-01-31T22:58:36.078Z,7.67
2018-01-31T23:01:03.701Z,6.70
2018-01-31T23:03:31.301Z,6.80
2018-01-31T23:05:58.872Z,6.43
2018-01-31T23:08:26.443Z,4.07
2018-01-31T23:10:54.053Z,3.87
2018-01-31T23:13:21.981Z,4.10
2018-01-31T23:15:49.586Z,4.23
2018-01-31T23:18:18.938Z,4.17
2018-01-31T23:20:46.558Z,2.80
2018-01-31T23:23:14.090Z,3.43
2018-01-31T23:25:41.682Z,2.67
2018-01-31T23:28:09.228Z,2.30
2018-01-31T23:30:36.810Z,2.33
2018-01-31T23:33:07.218Z,2.40
2018-01-31T23:35:34.738Z,2.20
2018-01-31T23:38:02.714Z,2.10
2018-01-31T23:40:30.242Z,2.40
2018-01-31T23:42:57.840Z,2.53
2018-01-31T23:45:25.391Z,2.20
2018-01-31T23:47:53.348Z,2.17
2018-01-31T23:50:20.903Z,2.23
2018-01-31T23:52:48.910Z,1.70
2018-01-31T23:55:16.453Z,1.97
2018-01-31T23:57:44.339Z,2.17
